Time;durP1;ratioP1;P1;durP2;ratioP2;P2;SDS_P1;SDS_P2;PMS_P1;PMS_P2;Temp;Humidity;BMP_temperature;BMP_pressure;BME280_temperature;BME280_humidity;BME280_pressure;Samples;Min_cycle;Max_cycle;Signal;HPM_P1;HPM_P2
2022/03/04 00:00:21;;;;;;;16.77;10.95;;;9.20;90.70;;;;;;4972416;28;20059;-63
2022/03/04 00:02:49;;;;;;;12.75;10.02;;;9.20;90.80;;;;;;4972425;28;20058;-62
2022/03/04 00:05:16;;;;;;;8.82;7.82;;;9.30;90.30;;;;;;4972841;28;20085;-63
2022/03/04 00:07:44;;;;;;;10.82;7.15;;;9.30;90.20;;;;;;4972962;28;20054;-62
2022/03/04 00:10:11;;;;;;;10.93;7.00;;;9.40;90.00;;;;;;4966204;28;20051;-63
2022/03/04 00:12:39;;;;;;;8.43;5.95;;;9.40;89.20;;;;;;4968502;28;20093;-62
2022/03/04 00:15:07;;;;;;;7.78;5.72;;;9.50;89.00;;;;;;4972554;28;20486;-63
2022/03/04 00:17:34;;;;;;;9.45;6.78;;;9.50;88.40;;;;;;4972491;28;20494;-62
2022/03/04 00:20:03;;;;;;;9.30;6.80;;;9.50;88.00;;;;;;4972201;28;20038;-62
2022/03/04 00:22:30;;;;;;;10.65;7.63;;;9.50;88.60;;;;;;4968718;28;20036;-62
2022/03/04 00:24:58;;;;;;;14.40;7.90;;;9.60;89.20;;;;;;4971287;28;20039;-62
2022/03/04 00:27:26;;;;;;;10.90;8.15;;;9.60;89.50;;;;;;4970644;28;20097;-62
2022/03/04 00:29:53;;;;;;;13.15;8.45;;;9.60;89.70;;;;;;4972602;28;20417;-62
2022/03/04 00:32:21;;;;;;;9.65;6.10;;;9.60;88.70;;;;;;4971605;28;20497;-62
2022/03/04 00:34:49;;;;;;;10.30;4.53;;;9.70;87.60;;;;;;4972614;28;20054;-62
2022/03/04 00:37:17;;;;;;;6.57;3.50;;;9.60;87.20;;;;;;4969404;28;20101;-62
2022/03/04 00:39:45;;;;;;;4.63;3.15;;;9.60;87.20;;;;;;4971752;28;20409;-62
2022/03/04 00:42:13;;;;;;;6.20;3.63;;;9.60;87.10;;;;;;4971447;28;20125;-62
2022/03/04 00:44:40;;;;;;;10.48;5.68;;;9.60;87.30;;;;;;4971303;28;20508;-62
2022/03/04 00:47:08;;;;;;;7.63;5.50;;;9.50;87.50;;;;;;4971714;28;20046;-62
2022/03/04 00:49:37;;;;;;;9.07;4.88;;;9.50;87.50;;;;;;4968837;28;20051;-63
2022/03/04 00:52:05;;;;;;;8.70;4.13;;;9.50;87.70;;;;;;4966408;28;20046;-62
2022/03/04 00:54:33;;;;;;;5.70;3.58;;;9.50;87.70;;;;;;4967987;28;20043;-63
2022/03/04 00:57:00;;;;;;;6.18;4.15;;;9.50;87.40;;;;;;4964657;28;20493;-62
2022/03/04 00:59:28;;;;;;;6.05;3.05;;;9.50;87.30;;;;;;4972148;28;20058;-62
2022/03/04 01:01:56;;;;;;;11.98;4.82;;;9.50;87.30;;;;;;4970979;28;20031;-62
2022/03/04 01:04:24;;;;;;;18.83;10.13;;;9.50;87.50;;;;;;4973093;28;20126;-62
2022/03/04 01:06:51;;;;;;;15.73;9.95;;;9.40;87.70;;;;;;4960427;28;20046;-62
2022/03/04 01:09:19;;;;;;;14.40;8.38;;;9.50;88.30;;;;;;4960856;28;20051;-63
2022/03/04 01:11:46;;;;;;;10.05;5.40;;;9.50;88.30;;;;;;4965868;28;20051;-62
2022/03/04 01:14:19;;;;;;;7.68;4.15;;;9.50;87.90;;;;;;4969050;28;20035;-63
2022/03/04 01:16:47;;;;;;;9.63;5.82;;;9.50;87.50;;;;;;4967532;28;20058;-63
2022/03/04 01:19:14;;;;;;;9.82;4.30;;;9.50;87.50;;;;;;4991885;28;20058;-63
2022/03/04 01:21:42;;;;;;;14.23;7.40;;;9.40;87.50;;;;;;4974885;28;20098;-63
2022/03/04 01:24:10;;;;;;;11.00;7.07;;;9.40;87.80;;;;;;4975741;28;20147;-62
2022/03/04 01:26:37;;;;;;;10.77;6.03;;;9.30;87.50;;;;;;4973644;28;20039;-62
2022/03/04 01:29:05;;;;;;;10.20;5.72;;;9.20;87.50;;;;;;4974260;28;20051;-62
2022/03/04 01:31:32;;;;;;;8.88;5.65;;;9.10;87.70;;;;;;4976790;28;20067;-62
2022/03/04 01:34:01;;;;;;;9.57;5.88;;;9.00;88.20;;;;;;4975201;28;20445;-62
2022/03/04 01:36:33;;;;;;;10.57;6.43;;;8.90;88.70;;;;;;4975257;28;20092;-62
2022/03/04 01:39:02;;;;;;;9.52;5.40;;;8.90;89.00;;;;;;4972487;28;20035;-62
2022/03/04 01:41:29;;;;;;;11.07;5.50;;;8.90;89.10;;;;;;4974279;28;20101;-61
2022/03/04 01:43:57;;;;;;;6.95;4.22;;;8.90;89.20;;;;;;4973383;28;20449;-63
2022/03/04 01:46:29;;;;;;;8.93;4.93;;;8.90;89.30;;;;;;4976345;28;20552;-63
2022/03/04 01:48:56;;;;;;;9.98;5.93;;;8.90;89.30;;;;;;4974540;28;20525;-61
2022/03/04 01:51:24;;;;;;;9.07;6.10;;;8.90;89.40;;;;;;4975166;28;20035;-61
2022/03/04 01:53:52;;;;;;;11.73;7.60;;;8.80;89.50;;;;;;4975026;28;20039;-61
2022/03/04 01:56:21;;;;;;;8.25;5.53;;;8.90;89.70;;;;;;4974004;28;20050;-61
2022/03/04 01:58:49;;;;;;;6.25;3.72;;;8.90;89.80;;;;;;4972745;28;20090;-60
2022/03/04 02:01:17;;;;;;;4.97;3.90;;;9.00;89.70;;;;;;4975047;28;20039;-61
2022/03/04 02:03:44;;;;;;;6.15;3.30;;;9.00;89.70;;;;;;4964680;28;20148;-61
2022/03/04 02:06:12;;;;;;;5.43;3.40;;;8.90;89.40;;;;;;4974065;28;20397;-61
2022/03/04 02:08:39;;;;;;;6.53;3.63;;;8.90;90.20;;;;;;4974135;28;20125;-61
2022/03/04 02:11:07;;;;;;;7.88;4.95;;;8.80;90.50;;;;;;4973856;28;20035;-61
2022/03/04 02:13:37;;;;;;;7.18;5.20;;;8.70;90.80;;;;;;4971472;28;20490;-61
2022/03/04 02:16:23;;;;;;;8.68;6.13;;;8.60;91.10;;;;;;4957209;28;20398;-61
2022/03/04 02:18:51;;;;;;;11.85;7.20;;;8.50;91.50;;;;;;4974924;28;20479;-61
2022/03/04 02:21:23;;;;;;;9.40;7.18;;;8.50;91.90;;;;;;4973939;28;20069;-61
2022/03/04 02:23:50;;;;;;;10.75;8.30;;;8.40;92.00;;;;;;4973079;28;20069;-60
2022/03/04 02:26:18;;;;;;;13.13;8.35;;;8.40;92.20;;;;;;4973568;28;20042;-63
2022/03/04 02:28:46;;;;;;;11.75;8.30;;;8.30;92.50;;;;;;4974475;28;20133;-60
2022/03/04 02:31:15;;;;;;;15.07;10.40;;;8.30;92.90;;;;;;4974944;28;20063;-60
2022/03/04 02:33:44;;;;;;;11.60;8.77;;;8.30;93.20;;;;;;4974165;28;20094;-63
2022/03/04 02:36:12;;;;;;;13.43;8.40;;;8.30;93.80;;;;;;4973632;28;20054;-63
2022/03/04 02:38:39;;;;;;;11.00;8.50;;;8.20;94.10;;;;;;4973609;28;20473;-63
2022/03/04 02:41:07;;;;;;;15.77;9.88;;;8.20;94.30;;;;;;4973789;28;20042;-63
2022/03/04 02:43:37;;;;;;;12.15;9.30;;;8.20;94.40;;;;;;4975238;28;20122;-62
2022/03/04 02:46:05;;;;;;;17.98;9.32;;;8.20;94.50;;;;;;4975193;28;20053;-63
2022/03/04 02:48:32;;;;;;;12.05;8.60;;;8.20;94.60;;;;;;4974875;28;20133;-62
2022/03/04 02:51:00;;;;;;;12.00;9.05;;;8.30;94.60;;;;;;4976358;28;20086;-63
2022/03/04 02:53:28;;;;;;;12.98;8.82;;;8.30;94.80;;;;;;4975296;28;20094;-62
2022/03/04 02:55:55;;;;;;;12.57;9.02;;;8.30;95.10;;;;;;4974320;28;20054;-62
2022/03/04 02:58:23;;;;;;;13.57;9.55;;;8.20;95.40;;;;;;4975992;28;20090;-62
2022/03/04 03:00:51;;;;;;;12.10;8.25;;;8.30;95.60;;;;;;4976200;28;20449;-62
2022/03/04 03:03:19;;;;;;;9.90;8.30;;;8.30;95.80;;;;;;4976134;28;20047;-63
2022/03/04 03:05:46;;;;;;;10.73;7.68;;;8.30;95.90;;;;;;4975048;28;20074;-62
2022/03/04 03:08:14;;;;;;;8.88;6.55;;;8.30;96.10;;;;;;4974974;28;20078;-62
2022/03/04 03:10:43;;;;;;;10.02;7.45;;;8.30;96.20;;;;;;4976008;28;20459;-62
2022/03/04 03:13:10;;;;;;;8.82;6.32;;;8.40;96.30;;;;;;4975932;28;20578;-62
2022/03/04 03:15:38;;;;;;;9.38;6.65;;;8.40;96.40;;;;;;4974964;28;20509;-62
2022/03/04 03:18:06;;;;;;;8.20;6.28;;;8.40;96.50;;;;;;4975922;28;20054;-62
2022/03/04 03:20:34;;;;;;;8.52;5.68;;;8.40;96.60;;;;;;4974492;28;20379;-62
2022/03/04 03:23:01;;;;;;;8.82;5.85;;;8.50;96.50;;;;;;4975688;28;20513;-62
2022/03/04 03:25:29;;;;;;;10.68;6.60;;;8.50;96.50;;;;;;4975650;28;20043;-62
2022/03/04 03:27:57;;;;;;;7.97;5.80;;;8.50;96.60;;;;;;4974595;28;20046;-62
2022/03/04 03:30:24;;;;;;;13.15;6.32;;;8.50;96.60;;;;;;4975809;28;20133;-62
2022/03/04 03:32:52;;;;;;;8.52;5.70;;;8.50;96.70;;;;;;4975652;28;20049;-62
2022/03/04 03:35:20;;;;;;;7.85;5.35;;;8.50;96.70;;;;;;4975405;28;20055;-62
2022/03/04 03:37:48;;;;;;;7.95;5.88;;;8.50;96.70;;;;;;4974406;28;20406;-62
2022/03/04 03:40:15;;;;;;;7.30;4.72;;;8.50;96.70;;;;;;4975366;28;20146;-62
2022/03/04 03:42:43;;;;;;;8.73;5.40;;;8.50;96.80;;;;;;4975448;28;20390;-62
2022/03/04 03:45:12;;;;;;;6.78;5.47;;;8.50;96.80;;;;;;4975445;28;20043;-63
2022/03/04 03:47:40;;;;;;;6.05;4.63;;;8.50;96.90;;;;;;4974232;28;20054;-63
2022/03/04 03:50:10;;;;;;;7.75;5.20;;;8.50;96.90;;;;;;4975408;28;20047;-62
2022/03/04 03:52:39;;;;;;;9.10;4.85;;;8.50;96.90;;;;;;4974062;28;20146;-62
2022/03/04 03:55:07;;;;;;;9.68;6.03;;;8.50;97.00;;;;;;4975344;28;20043;-62
2022/03/04 03:57:34;;;;;;;7.53;4.75;;;8.40;97.10;;;;;;4974670;28;20501;-62
2022/03/04 04:00:04;;;;;;;9.00;5.60;;;8.40;97.20;;;;;;4973976;28;20042;-62
2022/03/04 04:02:38;;;;;;;9.38;6.38;;;8.40;97.20;;;;;;4973950;28;20433;-62
2022/03/04 04:05:07;;;;;;;10.73;5.63;;;8.40;97.30;;;;;;4974108;28;20082;-62
2022/03/04 04:07:35;;;;;;;9.20;5.95;;;8.40;97.30;;;;;;4973731;28;20046;-62
2022/03/04 04:10:03;;;;;;;5.82;4.55;;;8.40;97.30;;;;;;4973827;28;20050;-62
2022/03/04 04:12:30;;;;;;;10.93;5.18;;;8.40;97.30;;;;;;4975227;28;20133;-62
2022/03/04 04:14:58;;;;;;;9.15;5.80;;;8.40;97.30;;;;;;4973853;28;20046;-62
2022/03/04 04:17:25;;;;;;;6.10;5.05;;;8.40;97.30;;;;;;4974013;28;20061;-63
2022/03/04 04:19:53;;;;;;;8.57;4.82;;;8.40;97.20;;;;;;4973675;28;20497;-62
2022/03/04 04:22:21;;;;;;;8.38;4.38;;;8.40;97.30;;;;;;4974773;28;20078;-63
2022/03/04 04:24:48;;;;;;;5.35;3.70;;;8.40;97.20;;;;;;4974038;28;20057;-62
2022/03/04 04:27:16;;;;;;;7.30;4.30;;;8.50;97.20;;;;;;4974763;28;20078;-62
2022/03/04 04:29:43;;;;;;;7.53;4.65;;;8.50;97.10;;;;;;4974770;28;20054;-60
2022/03/04 04:32:11;;;;;;;8.75;5.70;;;8.60;97.00;;;;;;4974935;28;20046;-60
2022/03/04 04:34:39;;;;;;;6.32;4.70;;;8.70;97.00;;;;;;4973578;28;20043;-61
2022/03/04 04:37:06;;;;;;;5.82;4.65;;;8.80;96.80;;;;;;4973899;28;20047;-60
2022/03/04 04:39:34;;;;;;;6.78;4.57;;;8.80;96.80;;;;;;4974641;28;20054;-62
2022/03/04 04:42:01;;;;;;;6.57;4.78;;;8.90;96.70;;;;;;4973508;28;20045;-62
2022/03/04 04:44:29;;;;;;;7.88;5.18;;;8.90;96.60;;;;;;4973705;28;20043;-63
2022/03/04 04:46:56;;;;;;;8.55;4.65;;;9.00;96.60;;;;;;4977215;28;20081;-62
2022/03/04 04:49:25;;;;;;;7.35;4.80;;;9.00;96.70;;;;;;4978567;28;20453;-62
2022/03/04 04:51:53;;;;;;;8.05;4.70;;;9.00;96.70;;;;;;4978723;28;20046;-62
2022/03/04 04:54:23;;;;;;;6.10;4.93;;;9.00;96.60;;;;;;4977551;28;20521;-62
2022/03/04 04:56:50;;;;;;;8.57;5.07;;;9.00;96.60;;;;;;4978926;28;20090;-62
2022/03/04 04:59:18;;;;;;;6.90;5.28;;;9.00;96.50;;;;;;4977356;28;20051;-62
2022/03/04 05:01:46;;;;;;;6.55;5.25;;;9.00;96.50;;;;;;4961300;28;20405;-62
2022/03/04 05:04:13;;;;;;;6.50;5.63;;;9.10;96.40;;;;;;4978343;28;20105;-62
2022/03/04 05:06:41;;;;;;;8.10;6.25;;;9.00;96.30;;;;;;4978246;28;20134;-62
2022/03/04 05:09:09;;;;;;;10.65;7.88;;;9.10;96.30;;;;;;4977215;28;20047;-62
2022/03/04 05:11:36;;;;;;;10.25;7.32;;;9.10;96.30;;;;;;4961026;28;20078;-62
2022/03/04 05:14:03;;;;;;;8.95;6.63;;;9.10;96.30;;;;;;4978163;28;20039;-62
2022/03/04 05:16:31;;;;;;;11.00;7.30;;;9.10;96.40;;;;;;4978045;28;20510;-62
2022/03/04 05:18:59;;;;;;;12.85;8.20;;;9.10;96.40;;;;;;4977957;28;20484;-62
2022/03/04 05:21:26;;;;;;;9.45;6.90;;;9.10;96.40;;;;;;4977986;28;20367;-62
2022/03/04 05:23:59;;;;;;;12.57;7.57;;;9.10;96.50;;;;;;4976879;28;20047;-62
2022/03/04 05:26:28;;;;;;;10.88;7.03;;;9.00;96.50;;;;;;4976880;28;20605;-62
2022/03/04 05:28:55;;;;;;;10.52;8.23;;;9.00;96.80;;;;;;4977962;28;20086;-62
2022/03/04 05:31:23;;;;;;;13.95;7.65;;;9.00;96.50;;;;;;4978035;28;20076;-62
2022/03/04 05:33:51;;;;;;;10.55;7.50;;;9.00;96.60;;;;;;4978021;28;20049;-62
2022/03/04 05:36:19;;;;;;;11.15;7.82;;;9.00;96.70;;;;;;4978019;28;20050;-62
2022/03/04 05:38:48;;;;;;;12.05;7.13;;;9.00;96.70;;;;;;4976774;28;20383;-63
2022/03/04 05:41:17;;;;;;;12.82;6.57;;;9.00;96.70;;;;;;4977743;28;20346;-63
2022/03/04 05:43:46;;;;;;;12.70;9.23;;;9.00;96.80;;;;;;4976690;28;20157;-63
2022/03/04 05:46:13;;;;;;;11.50;8.25;;;9.00;96.80;;;;;;4976472;28;20039;-63
2022/03/04 05:48:41;;;;;;;12.90;9.52;;;9.00;96.80;;;;;;4976446;28;20501;-62
2022/03/04 05:51:10;;;;;;;13.45;7.80;;;9.00;96.80;;;;;;4976632;28;20064;-62
2022/03/04 05:53:38;;;;;;;17.67;9.82;;;9.00;96.80;;;;;;4976383;28;20046;-62
2022/03/04 05:56:07;;;;;;;16.05;10.65;;;9.00;96.90;;;;;;4976337;28;20054;-62
2022/03/04 05:58:35;;;;;;;10.77;7.45;;;9.10;96.80;;;;;;4977361;28;20046;-62
2022/03/04 06:01:06;;;;;;;9.48;5.72;;;8.80;96.30;;;;;;4976576;28;20039;-62
2022/03/04 06:03:35;;;;;;;8.70;4.78;;;8.40;96.90;;;;;;4977558;28;20054;-62
2022/03/04 06:06:04;;;;;;;8.75;5.68;;;8.20;97.10;;;;;;4976168;28;20043;-63
2022/03/04 06:08:32;;;;;;;11.02;6.68;;;8.10;97.30;;;;;;4960197;28;20081;-63
2022/03/04 06:10:59;;;;;;;9.73;6.32;;;8.00;97.50;;;;;;4977139;28;20061;-63
2022/03/04 06:13:27;;;;;;;14.43;7.28;;;8.00;97.90;;;;;;4975972;28;20046;-62
2022/03/04 06:15:54;;;;;;;10.80;6.90;;;8.00;97.90;;;;;;4977037;28;20042;-62
2022/03/04 06:18:22;;;;;;;7.95;6.30;;;8.10;97.90;;;;;;4977006;28;20042;-62
2022/03/04 06:20:49;;;;;;;11.23;5.72;;;8.00;97.90;;;;;;4976909;28;20067;-62
2022/03/04 06:23:17;;;;;;;7.82;6.28;;;8.00;97.90;;;;;;4977012;28;20082;-63
2022/03/04 06:25:45;;;;;;;7.72;5.22;;;7.90;98.00;;;;;;4975732;28;20038;-63
2022/03/04 06:28:13;;;;;;;6.35;4.95;;;7.90;97.80;;;;;;4976848;28;20049;-62
2022/03/04 06:30:40;;;;;;;9.18;5.93;;;7.90;97.90;;;;;;4975949;28;20504;-62
2022/03/04 06:35:55;;;;;;;7.38;4.45;;;8.00;97.80;;;;;;4975504;28;20457;-62
2022/03/04 06:38:22;;;;;;;10.27;5.00;;;8.00;97.60;;;;;;4976598;28;20046;-62
2022/03/04 06:40:50;;;;;;;8.65;4.80;;;8.00;97.50;;;;;;4975375;28;20039;-62
2022/03/04 06:43:20;;;;;;;6.32;4.65;;;8.10;97.40;;;;;;4975649;28;20054;-62
2022/03/04 06:45:48;;;;;;;6.88;4.93;;;8.20;97.30;;;;;;4976777;28;20050;-62
2022/03/04 06:48:18;;;;;;;7.28;4.97;;;8.20;97.10;;;;;;4976447;28;20047;-62
2022/03/04 06:50:46;;;;;;;6.10;4.40;;;8.30;96.90;;;;;;4975530;28;20050;-62
2022/03/04 06:53:13;;;;;;;7.88;5.15;;;8.40;96.70;;;;;;4975242;28;20046;-62
2022/03/04 06:55:41;;;;;;;9.57;6.28;;;8.40;96.70;;;;;;4975529;28;20051;-62
2022/03/04 06:58:09;;;;;;;13.10;9.18;;;8.50;96.70;;;;;;4975161;28;20468;-62
2022/03/04 07:00:38;;;;;;;15.23;8.77;;;8.50;96.60;;;;;;4975087;28;20062;-63
2022/03/04 07:03:06;;;;;;;13.85;8.07;;;8.50;96.40;;;;;;4976322;28;20038;-61
2022/03/04 07:05:35;;;;;;;16.35;9.88;;;8.60;96.40;;;;;;4976015;28;20135;-62
2022/03/04 07:08:04;;;;;;;9.20;5.95;;;8.60;96.20;;;;;;4975956;28;20070;-62
2022/03/04 07:10:31;;;;;;;8.02;6.03;;;8.80;96.10;;;;;;4975884;28;20058;-62
2022/03/04 07:12:59;;;;;;;8.18;6.40;;;8.90;95.70;;;;;;4974894;28;20050;-62
2022/03/04 07:15:26;;;;;;;14.20;9.15;;;9.00;95.50;;;;;;4974962;28;20054;-62
2022/03/04 07:17:54;;;;;;;12.85;10.50;;;9.20;95.30;;;;;;4975900;28;20039;-60
2022/03/04 07:20:22;;;;;;;14.63;9.48;;;9.40;95.10;;;;;;4974680;28;20054;-60
2022/03/04 07:22:49;;;;;;;15.18;10.60;;;9.90;94.90;;;;;;4975919;28;20047;-60
2022/03/04 07:25:18;;;;;;;12.82;8.35;;;10.30;94.00;;;;;;4975996;28;20047;-60
2022/03/04 07:27:46;;;;;;;23.45;16.17;;;10.60;93.30;;;;;;4975907;28;20086;-60
2022/03/04 07:30:16;;;;;;;11.43;8.10;;;10.90;93.30;;;;;;4974888;28;20051;-60
2022/03/04 07:32:44;;;;;;;12.68;7.97;;;11.10;93.70;;;;;;4974411;28;20441;-62
2022/03/04 07:35:13;;;;;;;7.68;5.32;;;11.50;94.00;;;;;;4975813;28;20043;-62
2022/03/04 07:37:42;;;;;;;7.18;5.57;;;11.60;93.20;;;;;;4974603;28;20039;-62
2022/03/04 07:40:13;;;;;;;7.60;5.40;;;11.50;92.90;;;;;;4975639;28;20134;-62
2022/03/04 07:42:41;;;;;;;6.50;4.35;;;11.50;93.10;;;;;;4974408;28;20498;-62
2022/03/04 07:45:10;;;;;;;5.93;4.28;;;11.50;93.10;;;;;;4974325;28;20046;-62
2022/03/04 07:47:41;;;;;;;6.38;4.07;;;11.60;93.10;;;;;;4974061;28;20501;-62
2022/03/04 07:50:11;;;;;;;6.78;4.00;;;11.80;93.40;;;;;;4975559;28;20097;-62
2022/03/04 07:52:40;;;;;;;5.97;3.90;;;12.00;93.50;;;;;;4975486;28;20047;-63
2022/03/04 07:55:12;;;;;;;6.57;4.25;;;12.30;93.50;;;;;;4975473;28;20397;-62
2022/03/04 07:57:40;;;;;;;5.82;4.43;;;12.40;93.80;;;;;;4974322;28;20075;-62
2022/03/04 08:00:11;;;;;;;6.47;3.75;;;12.60;94.20;;;;;;4975115;28;20129;-62
2022/03/04 08:02:39;;;;;;;5.45;3.45;;;12.50;94.70;;;;;;4974244;28;20489;-62
2022/03/04 08:05:10;;;;;;;4.80;3.08;;;12.60;95.00;;;;;;4975321;28;20379;-62
2022/03/04 08:07:38;;;;;;;5.47;3.33;;;12.70;95.00;;;;;;4974206;28;20046;-60
2022/03/04 08:10:07;;;;;;;4.35;3.63;;;12.70;95.10;;;;;;4975190;28;20497;-60
2022/03/04 08:12:38;;;;;;;6.95;3.25;;;12.90;94.80;;;;;;4974908;28;20095;-60
2022/03/04 08:15:09;;;;;;;4.47;3.03;;;13.00;94.60;;;;;;4975145;28;20042;-60
2022/03/04 08:17:38;;;;;;;4.50;3.22;;;13.10;94.60;;;;;;4973953;28;20043;-60
2022/03/04 08:20:07;;;;;;;5.55;3.05;;;13.20;94.20;;;;;;4974600;28;20386;-60
2022/03/04 08:22:38;;;;;;;5.30;3.63;;;13.40;94.20;;;;;;4957570;28;20482;-61
2022/03/04 08:25:06;;;;;;;8.05;4.30;;;13.50;94.20;;;;;;4973725;28;20043;-62
2022/03/04 08:27:40;;;;;;;5.63;3.53;;;13.30;94.50;;;;;;4973941;28;20109;-63
2022/03/04 08:30:10;;;;;;;5.53;3.90;;;13.30;94.40;;;;;;4975066;28;20063;-61
2022/03/04 08:32:39;;;;;;;4.10;2.78;;;13.30;93.80;;;;;;4974963;28;20042;-61
2022/03/04 08:35:08;;;;;;;5.15;2.75;;;13.40;93.90;;;;;;4973610;28;20145;-61
2022/03/04 08:37:36;;;;;;;5.15;2.97;;;13.40;93.80;;;;;;4973559;28;20043;-61
2022/03/04 08:40:05;;;;;;;5.22;3.30;;;13.50;93.60;;;;;;4973384;28;20572;-61
2022/03/04 08:42:33;;;;;;;5.90;2.97;;;13.70;93.40;;;;;;4973790;28;20058;-61
2022/03/04 08:45:01;;;;;;;5.75;3.15;;;13.80;93.00;;;;;;4974797;28;20054;-61
2022/03/04 08:47:29;;;;;;;3.85;2.85;;;13.80;92.80;;;;;;4973388;28;20141;-61
2022/03/04 08:49:56;;;;;;;3.67;2.50;;;13.90;92.90;;;;;;4973404;28;20074;-61
2022/03/04 08:52:24;;;;;;;5.13;2.88;;;13.80;93.00;;;;;;4974460;28;20039;-61
2022/03/04 08:54:51;;;;;;;4.90;3.05;;;13.80;93.10;;;;;;4973740;28;20149;-61
2022/03/04 08:57:19;;;;;;;4.57;2.55;;;13.60;92.90;;;;;;4974807;28;20046;-61
2022/03/04 08:59:46;;;;;;;5.63;2.72;;;13.80;92.50;;;;;;4974562;28;20049;-60
2022/03/04 09:02:14;;;;;;;5.05;2.35;;;14.10;92.30;;;;;;4973549;28;20456;-61
2022/03/04 09:04:42;;;;;;;3.63;2.60;;;14.50;92.10;;;;;;4974807;28;20098;-61
2022/03/04 09:07:10;;;;;;;3.55;2.55;;;14.80;91.70;;;;;;4974537;28;20081;-61
2022/03/04 09:09:38;;;;;;;5.30;2.78;;;14.80;91.50;;;;;;4974642;28;20049;-61
2022/03/04 09:12:07;;;;;;;4.15;2.97;;;14.80;91.50;;;;;;4961974;28;20553;-61
2022/03/04 09:14:35;;;;;;;4.88;3.00;;;14.70;91.70;;;;;;4970539;28;20102;-61
2022/03/04 09:17:06;;;;;;;3.80;2.60;;;14.50;91.30;;;;;;4972115;28;20392;-61
2022/03/04 09:19:34;;;;;;;5.00;2.50;;;14.30;91.30;;;;;;4971809;28;20481;-61
2022/03/04 09:22:17;;;;;;;5.32;2.97;;;14.20;91.30;;;;;;4960309;28;20043;-61
2022/03/04 09:24:45;;;;;;;3.58;2.60;;;14.00;91.10;;;;;;4973017;28;20382;-61
2022/03/04 09:27:13;;;;;;;4.82;2.60;;;13.90;90.90;;;;;;4972407;28;20385;-61
2022/03/04 09:29:40;;;;;;;4.55;2.63;;;13.70;90.90;;;;;;4970897;28;20038;-61
2022/03/04 09:32:08;;;;;;;3.88;2.30;;;13.60;90.90;;;;;;4973225;28;20070;-61
2022/03/04 09:34:35;;;;;;;3.50;2.80;;;13.40;90.50;;;;;;4974301;28;20385;-61
2022/03/04 09:37:03;;;;;;;4.95;2.30;;;13.30;90.50;;;;;;4972565;28;20054;-61
2022/03/04 09:39:31;;;;;;;5.30;3.00;;;13.30;90.40;;;;;;4976561;28;20057;-61
2022/03/04 09:41:59;;;;;;;4.47;2.72;;;13.20;90.30;;;;;;4975250;28;20035;-63
2022/03/04 09:44:27;;;;;;;4.60;3.08;;;13.20;90.40;;;;;;4975074;28;20035;-63
2022/03/04 09:46:57;;;;;;;6.03;3.20;;;13.20;90.60;;;;;;4974737;28;20047;-63
2022/03/04 09:49:31;;;;;;;6.13;2.85;;;13.20;90.90;;;;;;4974394;28;20046;-63
2022/03/04 09:51:59;;;;;;;5.95;4.57;;;13.10;91.60;;;;;;4960319;28;20490;-63
2022/03/04 09:54:28;;;;;;;4.22;3.15;;;13.20;91.60;;;;;;4957095;29;20070;-63
2022/03/04 09:56:57;;;;;;;5.00;2.78;;;13.20;91.50;;;;;;4957114;29;20134;-61
2022/03/04 09:59:25;;;;;;;7.25;2.47;;;13.10;91.70;;;;;;4958179;28;20047;-61
2022/03/04 10:01:58;;;;;;;5.65;3.33;;;13.10;91.20;;;;;;4957979;28;20047;-61
2022/03/04 10:04:31;;;;;;;5.57;3.47;;;13.10;91.00;;;;;;4958274;28;20043;-61
2022/03/04 10:07:13;;;;;;;5.80;3.45;;;12.80;90.90;;;;;;4958056;28;20070;-61
2022/03/04 10:09:46;;;;;;;3.65;2.58;;;12.70;91.60;;;;;;4957964;28;20048;-61
2022/03/04 10:12:16;;;;;;;35.55;3.72;;;12.70;92.00;;;;;;4956775;28;20486;-61
2022/03/04 10:15:06;;;;;;;8.10;3.05;;;12.80;92.40;;;;;;4956636;29;20055;-61
2022/03/04 10:17:37;;;;;;;5.30;3.05;;;12.90;92.30;;;;;;4958076;28;20637;-61
2022/03/04 10:20:12;;;;;;;3.95;2.97;;;12.90;92.00;;;;;;4956543;28;20401;-61
2022/03/04 10:22:42;;;;;;;4.72;2.50;;;13.00;91.80;;;;;;4957478;28;20047;-61
2022/03/04 10:25:24;;;;;;;4.22;2.28;;;13.00;91.80;;;;;;4957738;28;20578;-61
2022/03/04 10:27:52;;;;;;;3.55;2.42;;;13.20;91.70;;;;;;4957731;28;20426;-61
2022/03/04 10:30:32;;;;;;;3.65;2.30;;;13.40;91.70;;;;;;4957634;28;20059;-61
2022/03/04 10:33:11;;;;;;;4.22;2.47;;;13.80;91.40;;;;;;4956778;28;20086;-61
2022/03/04 10:35:39;;;;;;;4.35;3.05;;;14.10;91.30;;;;;;4957432;28;20076;-61
2022/03/04 10:38:22;;;;;;;3.42;2.55;;;14.20;91.10;;;;;;4957446;28;20043;-62
2022/03/04 10:40:51;;;;;;;4.97;2.15;;;14.50;90.80;;;;;;4957286;28;20054;-62
2022/03/04 10:43:23;;;;;;;4.03;2.58;;;14.90;90.60;;;;;;4956395;28;20044;-62
2022/03/04 10:46:03;;;;;;;5.00;2.42;;;14.80;89.40;;;;;;4956484;29;20051;-62
2022/03/04 10:48:31;;;;;;;4.95;3.63;;;14.90;89.10;;;;;;4924011;29;20561;-62
2022/03/04 10:51:06;;;;;;;7.35;2.40;;;15.00;87.90;;;;;;4957211;29;20050;-62
2022/03/04 10:53:34;;;;;;;9.07;5.43;;;15.10;85.40;;;;;;4940302;29;20466;-62
2022/03/04 10:56:05;;;;;;;4.80;3.95;;;15.30;84.10;;;;;;4955787;29;20047;-62
2022/03/04 10:58:38;;;;;;;6.65;3.97;;;15.60;84.10;;;;;;4956959;29;20039;-62
2022/03/04 11:01:12;;;;;;;4.93;3.50;;;15.80;84.10;;;;;;4957318;29;20094;-61
2022/03/04 11:03:42;;;;;;;;;;;16.00;83.30;;;;;;4956170;29;20047;-62
2022/03/04 11:06:12;;;;;;;6.38;3.38;;;16.30;82.30;;;;;;4956941;28;19929;-62
2022/03/04 11:08:42;;;;;;;5.45;3.42;;;16.40;81.60;;;;;;4955867;29;20057;-62
2022/03/04 11:11:10;;;;;;;5.03;3.03;;;16.50;81.80;;;;;;4957064;28;20051;-62
2022/03/04 11:13:38;;;;;;;3.88;2.67;;;16.60;82.00;;;;;;4957111;28;20047;-62
2022/03/04 11:16:08;;;;;;;4.80;2.85;;;16.70;81.60;;;;;;4939799;29;20054;-62
2022/03/04 11:18:36;;;;;;;4.95;2.30;;;16.70;84.30;;;;;;4955497;29;20047;-62
2022/03/04 11:21:04;;;;;;;3.85;2.60;;;16.70;85.50;;;;;;4955334;29;20051;-62
2022/03/04 11:23:37;;;;;;;5.30;3.13;;;16.60;84.00;;;;;;4955261;29;20410;-62
2022/03/04 11:26:26;;;;;;;4.35;2.40;;;16.40;85.30;;;;;;4971778;28;20059;-62
2022/03/04 11:28:59;;;;;;;4.18;2.20;;;15.90;85.60;;;;;;4955099;28;20043;-62
2022/03/04 11:31:29;;;;;;;4.05;2.35;;;15.60;86.10;;;;;;4956816;28;20047;-62
2022/03/04 11:34:02;;;;;;;3.85;2.70;;;15.30;86.90;;;;;;4956709;28;20047;-61
2022/03/04 11:36:32;;;;;;;3.70;2.33;;;15.10;87.80;;;;;;4955519;29;20058;-62
2022/03/04 11:39:10;;;;;;;6.18;2.97;;;14.90;88.00;;;;;;4955443;29;20051;-61
2022/03/04 11:41:45;;;;;;;7.40;2.88;;;14.60;88.70;;;;;;4954857;28;20498;-62
2022/03/04 11:44:20;;;;;;;8.38;2.58;;;14.30;89.40;;;;;;4954861;29;20057;-62
2022/03/04 11:46:58;;;;;;;5.72;2.72;;;14.00;89.10;;;;;;4954668;29;20039;-62
2022/03/04 11:49:31;;;;;;;5.22;2.70;;;13.80;90.00;;;;;;4971331;28;20087;-62
2022/03/04 11:52:26;;;;;;;6.72;3.58;;;13.40;90.50;;;;;;4955076;28;20067;-62
2022/03/04 11:54:57;;;;;;;5.57;3.05;;;13.30;91.20;;;;;;4954468;28;20046;-62
2022/03/04 11:57:29;;;;;;;5.80;2.88;;;13.30;91.40;;;;;;4955851;28;20138;-63
2022/03/04 12:00:22;;;;;;;7.37;3.30;;;13.30;91.30;;;;;;4956068;29;20067;-63
2022/03/04 12:02:53;;;;;;;5.22;3.00;;;13.30;91.50;;;;;;4955881;28;20376;-63
2022/03/04 12:05:26;;;;;;;5.05;2.40;;;13.20;91.70;;;;;;4955994;28;20597;-63
2022/03/04 12:07:57;;;;;;;4.10;2.55;;;13.30;92.00;;;;;;4954776;29;20055;-62
2022/03/04 12:10:42;;;;;;;5.45;2.60;;;13.30;92.00;;;;;;4955698;29;20050;-62
2022/03/04 12:13:20;;;;;;;4.25;2.78;;;13.40;92.30;;;;;;4955882;28;20397;-63
2022/03/04 12:16:04;;;;;;;5.80;2.63;;;13.40;92.60;;;;;;4939156;28;20259;-63
2022/03/04 12:18:38;;;;;;;4.70;2.83;;;13.50;92.40;;;;;;4923196;29;20066;-64
2022/03/04 12:21:26;;;;;;;4.35;2.55;;;13.50;92.30;;;;;;4955484;28;20498;-61
2022/03/04 12:24:00;;;;;;;4.47;3.00;;;13.50;92.30;;;;;;4955874;28;20126;-62
2022/03/04 12:26:44;;;;;;;6.15;3.90;;;13.30;91.80;;;;;;4955757;28;20053;-62
2022/03/04 12:29:16;;;;;;;4.63;2.83;;;13.20;92.10;;;;;;4955678;29;20046;-62
2022/03/04 12:31:45;;;;;;;6.07;3.03;;;13.10;91.60;;;;;;4955725;28;20398;-62
2022/03/04 12:34:19;;;;;;;4.30;2.60;;;13.00;91.60;;;;;;4955454;28;20083;-62
2022/03/04 12:36:48;;;;;;;4.32;2.55;;;13.10;91.50;;;;;;4955536;29;20043;-62
2022/03/04 12:39:22;;;;;;;8.15;2.83;;;13.20;91.60;;;;;;4955657;28;20098;-62
2022/03/04 12:41:55;;;;;;;5.30;3.03;;;13.20;92.10;;;;;;4955507;28;20434;-62
2022/03/04 12:44:24;;;;;;;4.93;3.00;;;13.10;91.90;;;;;;4954799;29;20466;-62
2022/03/04 12:46:52;;;;;;;6.47;3.97;;;13.10;91.60;;;;;;4955257;28;20490;-62
2022/03/04 12:49:26;;;;;;;6.85;4.43;;;13.00;91.20;;;;;;4938217;29;20811;-62
2022/03/04 12:51:54;;;;;;;5.25;2.70;;;13.00;91.50;;;;;;4955521;28;20051;-61
2022/03/04 12:54:28;;;;;;;5.55;2.50;;;12.90;91.60;;;;;;4954485;29;20071;-61
2022/03/04 12:57:00;;;;;;;9.02;4.78;;;12.80;91.80;;;;;;4954314;29;20040;-62
2022/03/04 12:59:30;;;;;;;3.42;2.33;;;12.70;92.10;;;;;;4955255;29;20409;-62
2022/03/04 13:01:58;;;;;;;5.03;2.25;;;12.60;92.00;;;;;;4955163;28;20035;-62
2022/03/04 13:04:26;;;;;;;4.28;2.25;;;12.70;91.80;;;;;;4955376;29;20512;-62